This is the latest recevied weather packets stored in our database for station/object SQ6RR-11. If no packets are shown the sender has not sent any weather packets the latest 1 day(s).
| Time | Temp. | Humidity | Pressure | Rain* | Wind** | Luminosity | Snow |
|---|---|---|---|---|---|---|---|
| 1778068647 | 19.44° C | 41% | 1008.1 hPa | 0 mm | - | - | - |
| 1778068126 | 20° C | 42% | 1008.1 hPa | 0 mm | - | - | - |
| 1778067041 | 20° C | 44% | 1008 hPa | 0 mm | - | - | - |
| 1778066521 | 19.44° C | 45% | 1008.2 hPa | 0 mm | - | - | - |
| 1778066249 | 19.44° C | 45% | 1008.2 hPa | 0 mm | - | - | - |
| 1778065446 | 18.33° C | 48% | 1008 hPa | 0 mm | - | - | - |
| 1778063847 | 17.78° C | 50% | 1008 hPa | 0 mm | - | - | - |
| 1778061986 | 18.33° C | 51% | 1008 hPa | 0 mm | - | - | - |
| 1778060889 | 17.78° C | 52% | 1007.9 hPa | 0 mm | - | - | - |
| 1778059596 | 17.22° C | 55% | 1008 hPa | 0 mm | - | - | - |
| 1778058256 | 17.22° C | 55% | 1007.9 hPa | 0 mm | - | - | - |
| 1778057991 | 16.67° C | 54% | 1008 hPa | 0 mm | - | - | - |
| 1778057463 | 17.78° C | 52% | 1007.8 hPa | 0 mm | - | - | - |
| 1778056624 | 17.78° C | 56% | 1007.7 hPa | 0 mm | - | - | - |
| 1778055534 | 18.33° C | 53% | 1007.6 hPa | 0 mm | - | - | - |
| 1778054702 | 16.67° C | 58% | 1007.5 hPa | 0 mm | - | - | - |
| 1778054146 | 16.67° C | 60% | 1007.4 hPa | 0 mm | - | - | - |
| 1778053882 | 16.11° C | 61% | 1007.5 hPa | 0 mm | - | - | - |
| 1778053366 | 16.11° C | 61% | 1007.4 hPa | 0 mm | - | - | - |
| 1778052797 | 16.11° C | 63% | 1007.5 hPa | 0 mm | - | - | - |
| 1778051182 | 15.56° C | 67% | 1007.2 hPa | 0 mm | - | - | - |
| 1778050911 | 15.56° C | 67% | 1007.3 hPa | 0 mm | - | - | - |
| 1778050357 | 15.56° C | 66% | 1007.2 hPa | 0 mm | - | - | - |
| 1778049815 | 15.56° C | 64% | 1007.1 hPa | 0 mm | - | - | - |
| 1778048177 | 15.56° C | 66% | 1006.9 hPa | 0 mm | - | - | - |
* Rain latest hour (hover to see other rain measurements)
** Current wind speed in m/s (hover to see current wind gust speed)